sensor_id;sensor_type;location;lat;lon;timestamp;P1;durP1;ratioP1;P2;durP2;ratioP2
13660;SDS011;6903;49.480;11.102;2023-06-10T00:02:09;20.13;;;9.60;;
13660;SDS011;6903;49.480;11.102;2023-06-10T00:04:35;13.60;;;8.93;;
13660;SDS011;6903;49.480;11.102;2023-06-10T00:07:02;10.27;;;8.40;;
13660;SDS011;6903;49.480;11.102;2023-06-10T00:09:29;9.93;;;8.07;;
13660;SDS011;6903;49.480;11.102;2023-06-10T00:11:54;9.37;;;8.40;;
13660;SDS011;6903;49.480;11.102;2023-06-10T00:14:19;10.30;;;8.30;;
13660;SDS011;6903;49.480;11.102;2023-06-10T00:16:44;11.93;;;8.20;;
13660;SDS011;6903;49.480;11.102;2023-06-10T00:19:10;12.53;;;8.17;;
13660;SDS011;6903;49.480;11.102;2023-06-10T00:21:39;9.30;;;8.30;;
13660;SDS011;6903;49.480;11.102;2023-06-10T00:24:09;13.67;;;8.17;;
13660;SDS011;6903;49.480;11.102;2023-06-10T00:26:36;9.17;;;8.27;;
13660;SDS011;6903;49.480;11.102;2023-06-10T00:29:03;10.70;;;8.17;;
13660;SDS011;6903;49.480;11.102;2023-06-10T00:31:28;12.67;;;9.20;;
13660;SDS011;6903;49.480;11.102;2023-06-10T00:33:53;11.77;;;9.50;;
13660;SDS011;6903;49.480;11.102;2023-06-10T00:36:19;10.33;;;9.20;;
13660;SDS011;6903;49.480;11.102;2023-06-10T00:38:44;11.23;;;10.10;;
13660;SDS011;6903;49.480;11.102;2023-06-10T00:41:10;9.90;;;8.90;;
13660;SDS011;6903;49.480;11.102;2023-06-10T00:43:35;9.27;;;8.20;;
13660;SDS011;6903;49.480;11.102;2023-06-10T00:46:00;10.53;;;9.20;;
13660;SDS011;6903;49.480;11.102;2023-06-10T00:48:26;13.07;;;9.93;;
13660;SDS011;6903;49.480;11.102;2023-06-10T00:50:52;12.10;;;9.37;;
13660;SDS011;6903;49.480;11.102;2023-06-10T00:53:18;11.13;;;10.03;;
13660;SDS011;6903;49.480;11.102;2023-06-10T00:55:43;12.73;;;10.00;;
13660;SDS011;6903;49.480;11.102;2023-06-10T00:58:09;12.07;;;10.23;;
13660;SDS011;6903;49.480;11.102;2023-06-10T01:00:35;14.30;;;10.03;;
13660;SDS011;6903;49.480;11.102;2023-06-10T01:03:00;11.83;;;10.53;;
13660;SDS011;6903;49.480;11.102;2023-06-10T01:05:26;12.40;;;10.67;;
13660;SDS011;6903;49.480;11.102;2023-06-10T01:08:01;12.50;;;10.80;;
13660;SDS011;6903;49.480;11.102;2023-06-10T01:10:38;11.63;;;10.43;;
13660;SDS011;6903;49.480;11.102;2023-06-10T01:13:07;12.43;;;9.77;;
13660;SDS011;6903;49.480;11.102;2023-06-10T01:15:37;11.40;;;10.30;;
13660;SDS011;6903;49.480;11.102;2023-06-10T01:20:40;11.33;;;10.20;;
13660;SDS011;6903;49.480;11.102;2023-06-10T01:23:06;12.13;;;10.47;;
13660;SDS011;6903;49.480;11.102;2023-06-10T01:25:33;11.40;;;10.27;;
13660;SDS011;6903;49.480;11.102;2023-06-10T01:28:12;12.73;;;11.43;;
13660;SDS011;6903;49.480;11.102;2023-06-10T01:33:17;14.77;;;11.67;;
13660;SDS011;6903;49.480;11.102;2023-06-10T01:35:49;13.77;;;10.60;;
13660;SDS011;6903;49.480;11.102;2023-06-10T01:38:15;12.83;;;10.47;;
13660;SDS011;6903;49.480;11.102;2023-06-10T01:40:44;13.77;;;11.70;;
13660;SDS011;6903;49.480;11.102;2023-06-10T01:43:11;11.63;;;10.43;;
13660;SDS011;6903;49.480;11.102;2023-06-10T01:45:36;11.57;;;10.37;;
13660;SDS011;6903;49.480;11.102;2023-06-10T01:48:02;11.87;;;10.67;;
13660;SDS011;6903;49.480;11.102;2023-06-10T01:50:27;12.43;;;10.50;;
13660;SDS011;6903;49.480;11.102;2023-06-10T01:52:52;12.60;;;10.13;;
13660;SDS011;6903;49.480;11.102;2023-06-10T01:55:18;11.13;;;10.00;;
13660;SDS011;6903;49.480;11.102;2023-06-10T01:57:43;12.77;;;11.30;;
13660;SDS011;6903;49.480;11.102;2023-06-10T02:00:09;11.77;;;10.30;;
13660;SDS011;6903;49.480;11.102;2023-06-10T02:02:35;11.53;;;9.97;;
13660;SDS011;6903;49.480;11.102;2023-06-10T02:05:00;11.57;;;10.00;;
13660;SDS011;6903;49.480;11.102;2023-06-10T02:07:26;12.07;;;10.77;;
13660;SDS011;6903;49.480;11.102;2023-06-10T02:09:51;11.77;;;10.57;;
13660;SDS011;6903;49.480;11.102;2023-06-10T02:12:16;12.63;;;11.03;;
13660;SDS011;6903;49.480;11.102;2023-06-10T02:14:42;10.93;;;9.90;;
13660;SDS011;6903;49.480;11.102;2023-06-10T02:17:07;12.53;;;10.97;;
13660;SDS011;6903;49.480;11.102;2023-06-10T02:19:32;11.87;;;10.57;;
13660;SDS011;6903;49.480;11.102;2023-06-10T02:22:01;13.27;;;10.50;;
13660;SDS011;6903;49.480;11.102;2023-06-10T02:24:26;11.77;;;10.23;;
13660;SDS011;6903;49.480;11.102;2023-06-10T02:26:52;11.27;;;10.17;;
13660;SDS011;6903;49.480;11.102;2023-06-10T02:29:18;12.43;;;11.20;;
13660;SDS011;6903;49.480;11.102;2023-06-10T02:31:43;11.57;;;10.30;;
13660;SDS011;6903;49.480;11.102;2023-06-10T02:34:08;12.87;;;11.30;;
13660;SDS011;6903;49.480;11.102;2023-06-10T02:36:34;12.27;;;11.03;;
13660;SDS011;6903;49.480;11.102;2023-06-10T02:39:00;12.50;;;11.17;;
13660;SDS011;6903;49.480;11.102;2023-06-10T02:41:26;12.43;;;10.63;;
13660;SDS011;6903;49.480;11.102;2023-06-10T02:43:51;11.73;;;10.53;;
13660;SDS011;6903;49.480;11.102;2023-06-10T02:46:17;10.67;;;9.67;;
13660;SDS011;6903;49.480;11.102;2023-06-10T02:48:43;13.93;;;11.07;;
13660;SDS011;6903;49.480;11.102;2023-06-10T02:51:11;13.10;;;11.03;;
13660;SDS011;6903;49.480;11.102;2023-06-10T02:53:37;13.40;;;11.40;;
13660;SDS011;6903;49.480;11.102;2023-06-10T02:56:02;12.87;;;11.57;;
13660;SDS011;6903;49.480;11.102;2023-06-10T02:58:28;12.10;;;10.87;;
13660;SDS011;6903;49.480;11.102;2023-06-10T03:00:53;13.27;;;11.90;;
13660;SDS011;6903;49.480;11.102;2023-06-10T03:03:18;13.80;;;12.40;;
13660;SDS011;6903;49.480;11.102;2023-06-10T03:05:45;14.13;;;12.07;;
13660;SDS011;6903;49.480;11.102;2023-06-10T03:08:10;13.17;;;11.87;;
13660;SDS011;6903;49.480;11.102;2023-06-10T03:10:35;13.37;;;12.07;;
13660;SDS011;6903;49.480;11.102;2023-06-10T03:13:01;14.10;;;12.70;;
13660;SDS011;6903;49.480;11.102;2023-06-10T03:15:26;13.13;;;11.83;;
13660;SDS011;6903;49.480;11.102;2023-06-10T03:17:53;12.70;;;11.40;;
13660;SDS011;6903;49.480;11.102;2023-06-10T03:20:19;12.67;;;11.23;;
13660;SDS011;6903;49.480;11.102;2023-06-10T03:22:46;11.97;;;10.77;;
13660;SDS011;6903;49.480;11.102;2023-06-10T03:25:11;12.03;;;10.60;;
13660;SDS011;6903;49.480;11.102;2023-06-10T03:27:39;11.80;;;10.60;;
13660;SDS011;6903;49.480;11.102;2023-06-10T03:30:05;14.07;;;10.30;;
13660;SDS011;6903;49.480;11.102;2023-06-10T03:32:31;11.60;;;10.40;;
13660;SDS011;6903;49.480;11.102;2023-06-10T03:34:56;10.90;;;9.87;;
13660;SDS011;6903;49.480;11.102;2023-06-10T03:37:21;11.13;;;10.03;;
13660;SDS011;6903;49.480;11.102;2023-06-10T03:39:47;12.00;;;10.37;;
13660;SDS011;6903;49.480;11.102;2023-06-10T03:42:12;11.83;;;10.70;;
13660;SDS011;6903;49.480;11.102;2023-06-10T03:44:37;11.10;;;9.70;;
13660;SDS011;6903;49.480;11.102;2023-06-10T03:47:03;10.07;;;9.17;;
13660;SDS011;6903;49.480;11.102;2023-06-10T03:49:28;9.70;;;8.70;;
13660;SDS011;6903;49.480;11.102;2023-06-10T03:51:54;8.30;;;7.50;;
13660;SDS011;6903;49.480;11.102;2023-06-10T03:54:19;8.33;;;7.43;;
13660;SDS011;6903;49.480;11.102;2023-06-10T03:56:45;8.33;;;7.53;;
13660;SDS011;6903;49.480;11.102;2023-06-10T03:59:10;7.77;;;7.03;;
13660;SDS011;6903;49.480;11.102;2023-06-10T04:01:36;7.87;;;7.10;;
13660;SDS011;6903;49.480;11.102;2023-06-10T04:04:02;7.63;;;6.90;;
13660;SDS011;6903;49.480;11.102;2023-06-10T04:06:27;7.50;;;6.82;;
13660;SDS011;6903;49.480;11.102;2023-06-10T04:08:54;7.18;;;6.43;;
13660;SDS011;6903;49.480;11.102;2023-06-10T04:11:20;6.88;;;6.28;;
13660;SDS011;6903;49.480;11.102;2023-06-10T04:13:46;8.13;;;7.25;;
13660;SDS011;6903;49.480;11.102;2023-06-10T04:16:11;6.80;;;6.20;;
13660;SDS011;6903;49.480;11.102;2023-06-10T04:18:36;7.20;;;6.50;;
13660;SDS011;6903;49.480;11.102;2023-06-10T04:21:02;7.57;;;5.85;;
13660;SDS011;6903;49.480;11.102;2023-06-10T04:23:27;6.80;;;6.20;;
13660;SDS011;6903;49.480;11.102;2023-06-10T04:25:53;7.15;;;6.40;;
13660;SDS011;6903;49.480;11.102;2023-06-10T04:28:18;6.93;;;6.32;;
13660;SDS011;6903;49.480;11.102;2023-06-10T04:30:43;7.05;;;6.45;;
13660;SDS011;6903;49.480;11.102;2023-06-10T04:33:09;8.18;;;7.22;;
13660;SDS011;6903;49.480;11.102;2023-06-10T04:35:35;7.30;;;6.60;;
13660;SDS011;6903;49.480;11.102;2023-06-10T04:38:00;7.10;;;6.50;;
13660;SDS011;6903;49.480;11.102;2023-06-10T04:40:27;7.95;;;6.95;;
13660;SDS011;6903;49.480;11.102;2023-06-10T04:42:53;7.10;;;6.38;;
13660;SDS011;6903;49.480;11.102;2023-06-10T04:45:18;7.15;;;6.55;;
13660;SDS011;6903;49.480;11.102;2023-06-10T04:47:43;7.53;;;6.85;;
13660;SDS011;6903;49.480;11.102;2023-06-10T04:50:09;6.80;;;6.20;;
13660;SDS011;6903;49.480;11.102;2023-06-10T04:52:34;7.50;;;6.78;;
13660;SDS011;6903;49.480;11.102;2023-06-10T04:54:59;6.70;;;6.10;;
13660;SDS011;6903;49.480;11.102;2023-06-10T04:57:25;8.98;;;6.82;;
13660;SDS011;6903;49.480;11.102;2023-06-10T04:59:51;6.70;;;6.00;;
13660;SDS011;6903;49.480;11.102;2023-06-10T05:02:17;6.85;;;6.18;;
13660;SDS011;6903;49.480;11.102;2023-06-10T05:04:42;7.45;;;6.68;;
13660;SDS011;6903;49.480;11.102;2023-06-10T05:07:07;7.20;;;6.60;;
13660;SDS011;6903;49.480;11.102;2023-06-10T05:09:33;7.53;;;6.80;;
13660;SDS011;6903;49.480;11.102;2023-06-10T05:11:58;7.03;;;6.38;;
13660;SDS011;6903;49.480;11.102;2023-06-10T05:14:23;7.72;;;7.03;;
13660;SDS011;6903;49.480;11.102;2023-06-10T05:16:49;7.05;;;6.43;;
13660;SDS011;6903;49.480;11.102;2023-06-10T05:19:14;7.47;;;6.88;;
13660;SDS011;6903;49.480;11.102;2023-06-10T05:21:41;7.20;;;6.60;;
13660;SDS011;6903;49.480;11.102;2023-06-10T05:24:06;7.80;;;6.85;;
13660;SDS011;6903;49.480;11.102;2023-06-10T05:26:32;7.68;;;6.72;;
13660;SDS011;6903;49.480;11.102;2023-06-10T05:28:58;7.40;;;6.80;;
13660;SDS011;6903;49.480;11.102;2023-06-10T05:31:23;7.60;;;6.90;;
13660;SDS011;6903;49.480;11.102;2023-06-10T05:33:49;7.22;;;6.55;;
13660;SDS011;6903;49.480;11.102;2023-06-10T05:36:14;7.22;;;6.53;;
13660;SDS011;6903;49.480;11.102;2023-06-10T05:38:39;6.72;;;6.22;;
13660;SDS011;6903;49.480;11.102;2023-06-10T05:41:05;6.85;;;6.25;;
13660;SDS011;6903;49.480;11.102;2023-06-10T05:43:30;6.25;;;5.75;;
13660;SDS011;6903;49.480;11.102;2023-06-10T05:45:55;6.43;;;5.93;;
13660;SDS011;6903;49.480;11.102;2023-06-10T05:48:21;5.97;;;5.47;;
13660;SDS011;6903;49.480;11.102;2023-06-10T05:50:46;6.38;;;5.78;;
13660;SDS011;6903;49.480;11.102;2023-06-10T05:53:14;6.05;;;5.55;;
13660;SDS011;6903;49.480;11.102;2023-06-10T05:55:43;6.22;;;5.72;;
13660;SDS011;6903;49.480;11.102;2023-06-10T05:58:09;6.05;;;5.55;;
13660;SDS011;6903;49.480;11.102;2023-06-10T06:00:35;6.60;;;6.00;;
13660;SDS011;6903;49.480;11.102;2023-06-10T06:03:00;6.38;;;5.88;;
13660;SDS011;6903;49.480;11.102;2023-06-10T06:05:25;6.03;;;5.53;;
13660;SDS011;6903;49.480;11.102;2023-06-10T06:07:51;6.25;;;5.65;;
13660;SDS011;6903;49.480;11.102;2023-06-10T06:10:17;6.45;;;5.80;;
13660;SDS011;6903;49.480;11.102;2023-06-10T06:12:43;5.78;;;5.38;;
13660;SDS011;6903;49.480;11.102;2023-06-10T06:15:08;6.28;;;5.78;;
13660;SDS011;6903;49.480;11.102;2023-06-10T06:17:35;6.70;;;6.13;;
13660;SDS011;6903;49.480;11.102;2023-06-10T06:20:00;5.95;;;5.45;;
13660;SDS011;6903;49.480;11.102;2023-06-10T06:22:26;6.25;;;5.65;;
13660;SDS011;6903;49.480;11.102;2023-06-10T06:24:51;6.00;;;5.53;;
13660;SDS011;6903;49.480;11.102;2023-06-10T06:27:17;5.50;;;5.07;;
13660;SDS011;6903;49.480;11.102;2023-06-10T06:29:42;5.75;;;5.25;;
13660;SDS011;6903;49.480;11.102;2023-06-10T06:32:07;5.25;;;4.80;;
13660;SDS011;6903;49.480;11.102;2023-06-10T06:34:33;5.50;;;5.00;;
13660;SDS011;6903;49.480;11.102;2023-06-10T06:36:58;5.50;;;5.00;;
13660;SDS011;6903;49.480;11.102;2023-06-10T06:39:23;5.70;;;5.22;;
13660;SDS011;6903;49.480;11.102;2023-06-10T06:41:49;5.82;;;5.22;;
13660;SDS011;6903;49.480;11.102;2023-06-10T06:44:14;5.25;;;4.85;;
13660;SDS011;6903;49.480;11.102;2023-06-10T06:46:40;6.13;;;5.18;;
13660;SDS011;6903;49.480;11.102;2023-06-10T06:49:05;5.55;;;5.15;;
13660;SDS011;6903;49.480;11.102;2023-06-10T06:51:31;5.47;;;4.97;;
13660;SDS011;6903;49.480;11.102;2023-06-10T06:53:56;5.30;;;4.90;;
13660;SDS011;6903;49.480;11.102;2023-06-10T06:56:23;5.32;;;4.93;;
13660;SDS011;6903;49.480;11.102;2023-06-10T06:58:49;5.32;;;4.82;;
13660;SDS011;6903;49.480;11.102;2023-06-10T07:01:14;5.68;;;5.18;;
13660;SDS011;6903;49.480;11.102;2023-06-10T07:03:40;5.25;;;4.75;;
13660;SDS011;6903;49.480;11.102;2023-06-10T07:06:05;5.60;;;5.10;;
13660;SDS011;6903;49.480;11.102;2023-06-10T07:08:31;6.25;;;5.15;;
13660;SDS011;6903;49.480;11.102;2023-06-10T07:10:56;5.30;;;4.90;;
13660;SDS011;6903;49.480;11.102;2023-06-10T07:13:21;5.47;;;5.07;;
13660;SDS011;6903;49.480;11.102;2023-06-10T07:15:47;5.40;;;4.97;;
13660;SDS011;6903;49.480;11.102;2023-06-10T07:18:12;5.80;;;5.20;;
13660;SDS011;6903;49.480;11.102;2023-06-10T07:20:37;5.32;;;4.85;;
13660;SDS011;6903;49.480;11.102;2023-06-10T07:23:03;5.40;;;4.90;;
13660;SDS011;6903;49.480;11.102;2023-06-10T07:25:28;5.80;;;5.30;;
13660;SDS011;6903;49.480;11.102;2023-06-10T07:27:53;5.40;;;5.00;;
13660;SDS011;6903;49.480;11.102;2023-06-10T07:30:19;6.38;;;5.78;;
13660;SDS011;6903;49.480;11.102;2023-06-10T07:32:44;5.55;;;5.05;;
13660;SDS011;6903;49.480;11.102;2023-06-10T07:35:09;5.47;;;5.07;;
13660;SDS011;6903;49.480;11.102;2023-06-10T07:37:36;5.40;;;5.00;;
13660;SDS011;6903;49.480;11.102;2023-06-10T07:40:02;4.88;;;4.38;;
13660;SDS011;6903;49.480;11.102;2023-06-10T07:42:27;5.43;;;5.03;;
13660;SDS011;6903;49.480;11.102;2023-06-10T07:44:52;6.40;;;5.30;;
13660;SDS011;6903;49.480;11.102;2023-06-10T07:47:18;5.40;;;4.95;;
13660;SDS011;6903;49.480;11.102;2023-06-10T07:49:43;6.13;;;5.55;;
13660;SDS011;6903;49.480;11.102;2023-06-10T07:52:08;5.20;;;4.80;;
13660;SDS011;6903;49.480;11.102;2023-06-10T07:54:34;5.03;;;4.63;;
13660;SDS011;6903;49.480;11.102;2023-06-10T07:56:59;5.13;;;4.72;;
13660;SDS011;6903;49.480;11.102;2023-06-10T07:59:24;5.43;;;4.93;;
13660;SDS011;6903;49.480;11.102;2023-06-10T08:01:51;5.18;;;4.68;;
13660;SDS011;6903;49.480;11.102;2023-06-10T08:04:16;5.50;;;5.00;;
13660;SDS011;6903;49.480;11.102;2023-06-10T08:06:42;4.70;;;4.30;;
13660;SDS011;6903;49.480;11.102;2023-06-10T08:09:07;5.22;;;4.82;;
13660;SDS011;6903;49.480;11.102;2023-06-10T08:11:32;5.53;;;5.10;;
13660;SDS011;6903;49.480;11.102;2023-06-10T08:13:58;6.50;;;5.30;;
13660;SDS011;6903;49.480;11.102;2023-06-10T08:16:23;5.10;;;4.70;;
13660;SDS011;6903;49.480;11.102;2023-06-10T08:18:48;7.13;;;4.85;;
13660;SDS011;6903;49.480;11.102;2023-06-10T08:21:15;5.30;;;4.80;;
13660;SDS011;6903;49.480;11.102;2023-06-10T08:23:40;5.15;;;4.65;;
13660;SDS011;6903;49.480;11.102;2023-06-10T08:26:06;4.93;;;4.53;;
13660;SDS011;6903;49.480;11.102;2023-06-10T08:28:31;5.28;;;4.88;;
13660;SDS011;6903;49.480;11.102;2023-06-10T08:30:56;5.40;;;4.90;;
13660;SDS011;6903;49.480;11.102;2023-06-10T08:33:22;4.90;;;4.50;;
13660;SDS011;6903;49.480;11.102;2023-06-10T08:35:47;4.97;;;4.47;;
13660;SDS011;6903;49.480;11.102;2023-06-10T08:38:13;4.90;;;4.50;;
13660;SDS011;6903;49.480;11.102;2023-06-10T08:40:38;5.18;;;4.47;;
13660;SDS011;6903;49.480;11.102;2023-06-10T08:43:07;4.30;;;4.00;;
13660;SDS011;6903;49.480;11.102;2023-06-10T08:45:36;4.28;;;3.97;;
13660;SDS011;6903;49.480;11.102;2023-06-10T08:48:02;4.13;;;3.72;;
13660;SDS011;6903;49.480;11.102;2023-06-10T08:50:31;3.95;;;3.58;;
13660;SDS011;6903;49.480;11.102;2023-06-10T08:52:59;4.00;;;3.60;;
13660;SDS011;6903;49.480;11.102;2023-06-10T08:55:27;4.68;;;4.00;;
13660;SDS011;6903;49.480;11.102;2023-06-10T08:57:57;4.13;;;3.72;;
13660;SDS011;6903;49.480;11.102;2023-06-10T09:00:24;3.70;;;3.40;;
13660;SDS011;6903;49.480;11.102;2023-06-10T09:02:50;4.30;;;4.00;;
13660;SDS011;6903;49.480;11.102;2023-06-10T09:05:15;4.00;;;3.70;;
13660;SDS011;6903;49.480;11.102;2023-06-10T09:07:41;3.80;;;3.50;;
13660;SDS011;6903;49.480;11.102;2023-06-10T09:10:07;4.00;;;3.70;;
13660;SDS011;6903;49.480;11.102;2023-06-10T09:12:33;3.95;;;3.65;;
13660;SDS011;6903;49.480;11.102;2023-06-10T09:15:00;4.47;;;4.10;;
13660;SDS011;6903;49.480;11.102;2023-06-10T09:17:26;4.28;;;3.88;;
13660;SDS011;6903;49.480;11.102;2023-06-10T09:19:52;4.28;;;3.90;;
13660;SDS011;6903;49.480;11.102;2023-06-10T09:22:18;3.95;;;3.65;;
13660;SDS011;6903;49.480;11.102;2023-06-10T09:24:44;5.25;;;4.50;;
13660;SDS011;6903;49.480;11.102;2023-06-10T09:27:11;4.43;;;4.10;;
13660;SDS011;6903;49.480;11.102;2023-06-10T09:29:52;4.00;;;3.70;;
13660;SDS011;6903;49.480;11.102;2023-06-10T09:32:19;4.40;;;4.00;;
13660;SDS011;6903;49.480;11.102;2023-06-10T09:34:46;4.43;;;4.00;;
13660;SDS011;6903;49.480;11.102;2023-06-10T09:37:12;4.18;;;3.78;;
13660;SDS011;6903;49.480;11.102;2023-06-10T09:39:39;4.32;;;4.03;;
13660;SDS011;6903;49.480;11.102;2023-06-10T09:42:15;4.13;;;3.83;;
13660;SDS011;6903;49.480;11.102;2023-06-10T09:44:42;4.85;;;4.40;;
13660;SDS011;6903;49.480;11.102;2023-06-10T09:47:07;4.55;;;4.15;;
13660;SDS011;6903;49.480;11.102;2023-06-10T09:49:32;4.95;;;4.60;;
13660;SDS011;6903;49.480;11.102;2023-06-10T09:51:58;4.80;;;4.28;;
13660;SDS011;6903;49.480;11.102;2023-06-10T09:54:23;4.72;;;3.88;;
13660;SDS011;6903;49.480;11.102;2023-06-10T09:56:49;4.50;;;4.10;;
13660;SDS011;6903;49.480;11.102;2023-06-10T09:59:38;3.88;;;3.58;;
13660;SDS011;6903;49.480;11.102;2023-06-10T10:02:02;4.57;;;4.03;;
13660;SDS011;6903;49.480;11.102;2023-06-10T10:04:29;4.50;;;4.20;;
13660;SDS011;6903;49.480;11.102;2023-06-10T10:06:56;4.47;;;4.07;;
13660;SDS011;6903;49.480;11.102;2023-06-10T10:09:21;4.40;;;4.00;;
13660;SDS011;6903;49.480;11.102;2023-06-10T10:11:46;4.47;;;4.18;;
13660;SDS011;6903;49.480;11.102;2023-06-10T10:14:13;3.90;;;3.60;;
13660;SDS011;6903;49.480;11.102;2023-06-10T10:16:41;4.03;;;3.72;;
13660;SDS011;6903;49.480;11.102;2023-06-10T10:19:08;4.05;;;3.75;;
13660;SDS011;6903;49.480;11.102;2023-06-10T10:21:40;3.80;;;3.50;;
13660;SDS011;6903;49.480;11.102;2023-06-10T10:24:12;3.83;;;3.50;;
13660;SDS011;6903;49.480;11.102;2023-06-10T10:26:42;3.65;;;3.35;;
13660;SDS011;6903;49.480;11.102;2023-06-10T10:29:22;4.00;;;3.70;;
13660;SDS011;6903;49.480;11.102;2023-06-10T10:31:52;4.10;;;3.80;;
13660;SDS011;6903;49.480;11.102;2023-06-10T10:34:22;3.70;;;3.40;;
13660;SDS011;6903;49.480;11.102;2023-06-10T10:36:55;3.85;;;3.55;;
13660;SDS011;6903;49.480;11.102;2023-06-10T10:39:20;4.50;;;4.10;;
13660;SDS011;6903;49.480;11.102;2023-06-10T10:41:46;4.53;;;3.92;;
13660;SDS011;6903;49.480;11.102;2023-06-10T10:44:12;4.38;;;4.00;;
13660;SDS011;6903;49.480;11.102;2023-06-10T10:46:41;4.25;;;3.95;;
13660;SDS011;6903;49.480;11.102;2023-06-10T10:49:14;4.45;;;4.05;;
13660;SDS011;6903;49.480;11.102;2023-06-10T10:51:59;4.30;;;3.90;;
13660;SDS011;6903;49.480;11.102;2023-06-10T10:54:29;4.82;;;4.38;;
13660;SDS011;6903;49.480;11.102;2023-06-10T10:59:54;4.60;;;4.30;;
13660;SDS011;6903;49.480;11.102;2023-06-10T11:05:08;4.70;;;3.63;;
13660;SDS011;6903;49.480;11.102;2023-06-10T11:07:34;4.35;;;3.95;;
13660;SDS011;6903;49.480;11.102;2023-06-10T11:12:53;3.70;;;3.35;;
13660;SDS011;6903;49.480;11.102;2023-06-10T11:15:23;3.63;;;3.28;;
13660;SDS011;6903;49.480;11.102;2023-06-10T11:23:10;4.90;;;3.95;;
13660;SDS011;6903;49.480;11.102;2023-06-10T11:25:39;4.22;;;3.92;;
13660;SDS011;6903;49.480;11.102;2023-06-10T11:28:17;4.55;;;4.25;;
13660;SDS011;6903;49.480;11.102;2023-06-10T11:30:44;4.30;;;3.90;;
13660;SDS011;6903;49.480;11.102;2023-06-10T11:33:09;4.10;;;3.70;;
13660;SDS011;6903;49.480;11.102;2023-06-10T11:35:39;4.38;;;3.97;;
13660;SDS011;6903;49.480;11.102;2023-06-10T11:38:05;4.53;;;4.13;;
13660;SDS011;6903;49.480;11.102;2023-06-10T11:40:30;4.28;;;3.97;;
13660;SDS011;6903;49.480;11.102;2023-06-10T11:42:57;4.55;;;4.15;;
13660;SDS011;6903;49.480;11.102;2023-06-10T11:45:23;4.28;;;3.90;;
13660;SDS011;6903;49.480;11.102;2023-06-10T11:47:58;4.07;;;3.78;;
13660;SDS011;6903;49.480;11.102;2023-06-10T11:50:31;4.07;;;3.78;;
13660;SDS011;6903;49.480;11.102;2023-06-10T11:52:57;4.07;;;3.67;;
13660;SDS011;6903;49.480;11.102;2023-06-10T11:55:23;4.05;;;3.75;;
13660;SDS011;6903;49.480;11.102;2023-06-10T11:58:15;4.18;;;3.75;;
13660;SDS011;6903;49.480;11.102;2023-06-10T12:00:51;4.20;;;3.90;;
13660;SDS011;6903;49.480;11.102;2023-06-10T12:03:18;4.18;;;3.78;;
13660;SDS011;6903;49.480;11.102;2023-06-10T12:05:57;4.15;;;3.85;;
13660;SDS011;6903;49.480;11.102;2023-06-10T12:08:23;4.05;;;3.75;;
13660;SDS011;6903;49.480;11.102;2023-06-10T12:10:49;3.28;;;2.95;;
13660;SDS011;6903;49.480;11.102;2023-06-10T12:13:14;3.63;;;3.28;;
13660;SDS011;6903;49.480;11.102;2023-06-10T12:15:40;3.67;;;3.38;;
13660;SDS011;6903;49.480;11.102;2023-06-10T12:18:05;3.55;;;3.25;;
13660;SDS011;6903;49.480;11.102;2023-06-10T12:20:31;4.00;;;3.70;;
13660;SDS011;6903;49.480;11.102;2023-06-10T12:23:00;3.78;;;3.45;;
13660;SDS011;6903;49.480;11.102;2023-06-10T12:25:34;3.75;;;3.42;;
13660;SDS011;6903;49.480;11.102;2023-06-10T12:27:59;3.38;;;3.08;;
13660;SDS011;6903;49.480;11.102;2023-06-10T12:30:25;3.88;;;3.58;;
13660;SDS011;6903;49.480;11.102;2023-06-10T12:32:52;3.67;;;3.38;;
13660;SDS011;6903;49.480;11.102;2023-06-10T12:35:19;4.28;;;3.92;;
13660;SDS011;6903;49.480;11.102;2023-06-10T12:38:02;4.20;;;3.20;;
13660;SDS011;6903;49.480;11.102;2023-06-10T12:40:32;3.83;;;3.45;;
13660;SDS011;6903;49.480;11.102;2023-06-10T12:43:05;3.58;;;3.33;;
13660;SDS011;6903;49.480;11.102;2023-06-10T12:45:31;3.50;;;3.20;;
13660;SDS011;6903;49.480;11.102;2023-06-10T12:48:06;3.63;;;3.33;;
13660;SDS011;6903;49.480;11.102;2023-06-10T12:50:51;3.63;;;3.33;;
13660;SDS011;6903;49.480;11.102;2023-06-10T12:53:18;2.97;;;2.78;;
13660;SDS011;6903;49.480;11.102;2023-06-10T12:55:44;3.25;;;3.05;;
13660;SDS011;6903;49.480;11.102;2023-06-10T12:58:11;3.67;;;3.38;;
13660;SDS011;6903;49.480;11.102;2023-06-10T13:00:36;3.28;;;3.08;;
13660;SDS011;6903;49.480;11.102;2023-06-10T13:03:02;3.85;;;3.55;;
13660;SDS011;6903;49.480;11.102;2023-06-10T13:05:28;3.60;;;3.30;;
13660;SDS011;6903;49.480;11.102;2023-06-10T13:07:54;3.20;;;3.00;;
13660;SDS011;6903;49.480;11.102;2023-06-10T13:10:20;3.13;;;2.92;;
13660;SDS011;6903;49.480;11.102;2023-06-10T13:12:46;3.42;;;3.13;;
13660;SDS011;6903;49.480;11.102;2023-06-10T13:15:11;3.08;;;2.78;;
13660;SDS011;6903;49.480;11.102;2023-06-10T13:17:37;3.10;;;2.90;;
13660;SDS011;6903;49.480;11.102;2023-06-10T13:20:03;3.30;;;2.92;;
13660;SDS011;6903;49.480;11.102;2023-06-10T13:22:32;3.47;;;3.17;;
13660;SDS011;6903;49.480;11.102;2023-06-10T13:25:00;3.05;;;2.85;;
13660;SDS011;6903;49.480;11.102;2023-06-10T13:27:25;3.38;;;3.08;;
13660;SDS011;6903;49.480;11.102;2023-06-10T13:29:52;3.22;;;3.03;;
13660;SDS011;6903;49.480;11.102;2023-06-10T13:32:17;3.10;;;2.90;;
13660;SDS011;6903;49.480;11.102;2023-06-10T13:34:42;3.30;;;3.00;;
13660;SDS011;6903;49.480;11.102;2023-06-10T13:37:08;3.83;;;2.58;;
13660;SDS011;6903;49.480;11.102;2023-06-10T13:39:33;2.90;;;2.70;;
13660;SDS011;6903;49.480;11.102;2023-06-10T13:41:58;2.80;;;2.58;;
13660;SDS011;6903;49.480;11.102;2023-06-10T13:44:24;2.97;;;2.78;;
13660;SDS011;6903;49.480;11.102;2023-06-10T13:46:49;2.80;;;2.60;;
13660;SDS011;6903;49.480;11.102;2023-06-10T13:49:14;2.92;;;2.72;;
13660;SDS011;6903;49.480;11.102;2023-06-10T13:51:40;2.50;;;2.30;;
13660;SDS011;6903;49.480;11.102;2023-06-10T13:54:05;2.75;;;2.55;;
13660;SDS011;6903;49.480;11.102;2023-06-10T13:56:30;3.63;;;3.33;;
13660;SDS011;6903;49.480;11.102;2023-06-10T13:58:56;3.00;;;2.80;;
13660;SDS011;6903;49.480;11.102;2023-06-10T14:01:21;3.38;;;2.95;;
13660;SDS011;6903;49.480;11.102;2023-06-10T14:03:46;2.83;;;2.60;;
13660;SDS011;6903;49.480;11.102;2023-06-10T14:06:12;2.95;;;2.75;;
13660;SDS011;6903;49.480;11.102;2023-06-10T14:08:43;3.20;;;2.88;;
13660;SDS011;6903;49.480;11.102;2023-06-10T14:11:09;3.00;;;2.80;;
13660;SDS011;6903;49.480;11.102;2023-06-10T14:13:34;2.90;;;2.70;;
13660;SDS011;6903;49.480;11.102;2023-06-10T14:16:00;2.90;;;2.60;;
13660;SDS011;6903;49.480;11.102;2023-06-10T14:18:27;3.00;;;2.80;;
13660;SDS011;6903;49.480;11.102;2023-06-10T14:20:53;3.03;;;2.83;;
13660;SDS011;6903;49.480;11.102;2023-06-10T14:23:18;2.88;;;2.67;;
13660;SDS011;6903;49.480;11.102;2023-06-10T14:25:44;3.03;;;2.80;;
13660;SDS011;6903;49.480;11.102;2023-06-10T14:28:09;2.72;;;2.53;;
13660;SDS011;6903;49.480;11.102;2023-06-10T14:30:34;2.75;;;2.55;;
13660;SDS011;6903;49.480;11.102;2023-06-10T14:33:00;2.80;;;2.60;;
13660;SDS011;6903;49.480;11.102;2023-06-10T14:35:25;2.83;;;2.63;;
13660;SDS011;6903;49.480;11.102;2023-06-10T14:37:50;2.70;;;2.50;;
13660;SDS011;6903;49.480;11.102;2023-06-10T14:40:16;3.45;;;2.60;;
13660;SDS011;6903;49.480;11.102;2023-06-10T14:42:41;2.20;;;2.10;;
13660;SDS011;6903;49.480;11.102;2023-06-10T14:45:07;2.38;;;2.20;;
13660;SDS011;6903;49.480;11.102;2023-06-10T14:47:33;2.50;;;2.30;;
13660;SDS011;6903;49.480;11.102;2023-06-10T14:49:58;2.90;;;2.70;;
13660;SDS011;6903;49.480;11.102;2023-06-10T14:52:23;2.67;;;2.47;;
13660;SDS011;6903;49.480;11.102;2023-06-10T14:54:49;2.70;;;2.50;;
13660;SDS011;6903;49.480;11.102;2023-06-10T14:57:14;2.78;;;2.50;;
13660;SDS011;6903;49.480;11.102;2023-06-10T14:59:39;3.20;;;3.00;;